createdAt,value
2023-01-04T00:01:27.377Z,7.16
2023-01-04T00:04:32.507Z,7.26
2023-01-04T00:07:38.376Z,7.22
2023-01-04T00:10:42.619Z,7.21
2023-01-04T00:13:49.897Z,7.23
2023-01-04T00:16:54.909Z,7.17
2023-01-04T00:20:00.360Z,7.15
2023-01-04T00:23:03.646Z,7.07
2023-01-04T00:26:20.475Z,6.98
2023-01-04T00:29:24.277Z,6.93
2023-01-04T00:32:28.119Z,6.82
2023-01-04T00:35:45.655Z,6.75
2023-01-04T00:39:09.277Z,6.69
2023-01-04T00:42:17.194Z,6.63
2023-01-04T00:45:23.592Z,6.57
2023-01-04T00:48:30.340Z,6.45
2023-01-04T00:51:37.424Z,6.31
2023-01-04T00:54:41.141Z,6.20
2023-01-04T00:57:44.821Z,6.12
2023-01-04T01:00:50.821Z,5.98
2023-01-04T01:04:00.112Z,5.84
2023-01-04T01:07:03.865Z,5.73
2023-01-04T01:10:08.256Z,5.64
2023-01-04T01:13:12.491Z,5.57
2023-01-04T01:16:37.942Z,5.48
2023-01-04T01:19:44.277Z,5.43
2023-01-04T01:22:47.261Z,5.50
2023-01-04T01:25:51.635Z,5.49
2023-01-04T01:28:56.930Z,5.46
2023-01-04T01:32:00.758Z,5.48
2023-01-04T01:35:07.906Z,5.57
2023-01-04T01:38:11.966Z,5.52
2023-01-04T01:41:32.535Z,5.43
2023-01-04T01:44:47.507Z,5.40
2023-01-04T01:47:53.408Z,5.37
2023-01-04T01:51:07.194Z,5.40
2023-01-04T01:54:17.261Z,5.43
2023-01-04T01:57:28.029Z,5.46
2023-01-04T02:00:37.479Z,5.47
2023-01-04T02:03:49.306Z,5.52
2023-01-04T02:06:56.237Z,5.46
2023-01-04T02:10:01.183Z,5.50
2023-01-04T02:13:09.589Z,5.48
2023-01-04T02:16:24.457Z,5.51
2023-01-04T02:19:47.275Z,5.44
2023-01-04T02:23:20.680Z,5.44
2023-01-04T02:26:51.251Z,5.44
2023-01-04T02:30:40.215Z,5.39
2023-01-04T02:34:03.831Z,5.21
2023-01-04T02:37:19.845Z,5.10
2023-01-04T02:40:43.257Z,5.03
2023-01-04T02:44:18.897Z,4.96
2023-01-04T02:47:55.821Z,4.81
2023-01-04T02:51:02.564Z,4.77
2023-01-04T02:54:23.511Z,4.68
2023-01-04T02:57:48.291Z,4.52
2023-01-04T03:01:37.135Z,4.47
2023-01-04T03:05:12.506Z,4.43
2023-01-04T03:08:35.989Z,4.28
2023-01-04T03:12:23.487Z,4.22
2023-01-04T03:15:38.750Z,4.14
2023-01-04T03:18:50.762Z,4.05
2023-01-04T03:21:57.379Z,3.91
2023-01-04T03:25:27.466Z,3.87
2023-01-04T03:28:59.247Z,3.84
2023-01-04T03:32:33.006Z,3.75
2023-01-04T03:35:51.396Z,3.64
2023-01-04T03:39:29.191Z,3.49
2023-01-04T03:43:04.420Z,3.35
2023-01-04T03:46:43.269Z,3.30
2023-01-04T03:50:18.383Z,3.28
2023-01-04T03:53:28.137Z,3.25
2023-01-04T03:56:42.314Z,3.23
2023-01-04T04:00:16.239Z,3.19
2023-01-04T04:03:20.163Z,3.10
2023-01-04T04:06:55.370Z,3.12
2023-01-04T04:10:10.048Z,3.14
2023-01-04T04:13:23.350Z,3.15
2023-01-04T04:16:35.757Z,3.19
2023-01-04T04:19:46.644Z,3.21
2023-01-04T04:22:56.101Z,3.19
2023-01-04T04:25:59.893Z,3.21
2023-01-04T04:29:14.351Z,3.12
2023-01-04T04:32:19.019Z,3.08
2023-01-04T04:35:28.475Z,3.02
2023-01-04T04:38:43.800Z,2.95
2023-01-04T04:41:54.981Z,2.84
2023-01-04T04:44:59.709Z,2.72
2023-01-04T04:48:03.723Z,2.76
2023-01-04T04:51:13.573Z,2.79
2023-01-04T04:54:36.435Z,2.67
2023-01-04T04:57:43.578Z,2.51
2023-01-04T05:00:53.687Z,2.41
2023-01-04T05:04:02.608Z,2.41
2023-01-04T05:07:12.108Z,2.43
2023-01-04T05:10:26.724Z,2.41
2023-01-04T05:13:29.114Z,2.33
2023-01-04T05:16:52.154Z,2.20
2023-01-04T05:20:10.206Z,2.13
2023-01-04T05:23:19.712Z,2.08
2023-01-04T05:26:31.300Z,2.07
2023-01-04T05:30:06.014Z,2.08
2023-01-04T05:33:18.865Z,2.10
2023-01-04T05:36:37.312Z,1.97
2023-01-04T05:39:41.200Z,1.95
2023-01-04T05:42:51.787Z,1.97
2023-01-04T05:46:04.530Z,1.90
2023-01-04T05:49:10.911Z,1.81
2023-01-04T05:52:17.432Z,1.79
2023-01-04T05:55:32.986Z,1.76
2023-01-04T05:58:50.989Z,1.70
2023-01-04T06:01:54.323Z,1.72
2023-01-04T06:05:03.820Z,1.71
2023-01-04T06:08:07.425Z,1.75
2023-01-04T06:11:16.319Z,1.53
2023-01-04T06:14:22.879Z,1.44
2023-01-04T06:17:33.996Z,1.38
2023-01-04T06:20:41.717Z,1.31
2023-01-04T06:23:45.086Z,1.30
2023-01-04T06:26:55.181Z,1.41
2023-01-04T06:29:59.059Z,1.42
2023-01-04T06:33:07.581Z,1.37
2023-01-04T06:36:22.350Z,1.31
2023-01-04T06:39:37.215Z,1.24
2023-01-04T06:42:49.452Z,1.25
2023-01-04T06:45:58.478Z,1.22
2023-01-04T06:49:10.542Z,1.18
2023-01-04T06:52:21.836Z,1.19
2023-01-04T06:55:35.572Z,1.18
2023-01-04T06:58:39.130Z,1.25
2023-01-04T07:01:46.507Z,1.33
2023-01-04T07:04:52.083Z,1.48
2023-01-04T07:08:02.516Z,1.54
2023-01-04T07:11:17.855Z,1.61
2023-01-04T07:14:31.108Z,1.67
2023-01-04T07:17:35.186Z,1.67
2023-01-04T07:20:44.462Z,1.68
2023-01-04T07:23:54.404Z,1.68
2023-01-04T07:27:03.632Z,1.71
2023-01-04T07:30:08.170Z,1.77
2023-01-04T07:33:18.386Z,1.83
2023-01-04T07:36:29.198Z,1.90
2023-01-04T07:39:38.197Z,2.01
2023-01-04T07:42:56.769Z,2.19
2023-01-04T07:46:07.167Z,2.35
2023-01-04T07:49:17.968Z,2.51
2023-01-04T07:52:25.175Z,2.81
2023-01-04T07:55:39.851Z,3.03
2023-01-04T07:58:54.980Z,3.27
2023-01-04T08:02:12.347Z,3.60
2023-01-04T08:05:16.779Z,3.83
2023-01-04T08:08:27.781Z,3.99
2023-01-04T08:11:36.063Z,4.12
2023-01-04T08:14:42.731Z,4.11
2023-01-04T08:17:47.269Z,4.31
2023-01-04T08:20:58.335Z,4.51
2023-01-04T08:24:10.136Z,4.63
2023-01-04T08:27:15.500Z,4.75
2023-01-04T08:30:22.148Z,4.86
2023-01-04T08:33:28.532Z,5.03
2023-01-04T08:36:49.658Z,5.14
2023-01-04T08:39:56.824Z,5.24
2023-01-04T08:43:00.155Z,5.29
2023-01-04T08:46:09.584Z,5.30
2023-01-04T08:49:14.809Z,5.34
2023-01-04T08:52:21.938Z,5.42
2023-01-04T08:55:29.659Z,5.54
2023-01-04T08:58:38.870Z,5.67
2023-01-04T09:01:42.100Z,5.73
2023-01-04T09:04:45.877Z,5.94
2023-01-04T09:07:50.037Z,6.07
2023-01-04T09:10:53.750Z,6.22
2023-01-04T09:14:07.284Z,6.47
2023-01-04T09:17:12.864Z,6.52
2023-01-04T09:20:17.359Z,6.67
2023-01-04T09:23:22.506Z,6.93
2023-01-04T09:26:28.267Z,6.93
2023-01-04T09:29:34.819Z,6.98
2023-01-04T09:32:38.531Z,7.06
2023-01-04T09:35:43.164Z,7.18
2023-01-04T09:38:47.773Z,7.48
2023-01-04T09:42:00.135Z,7.52
2023-01-04T09:45:25.523Z,7.57
2023-01-04T09:48:34.221Z,7.72
2023-01-04T09:51:48.590Z,7.77
2023-01-04T09:55:36.545Z,8.02
2023-01-04T09:58:42.595Z,8.10
2023-01-04T10:01:54.259Z,8.06
2023-01-04T10:05:03.163Z,8.17
2023-01-04T10:08:17.871Z,8.43
2023-01-04T10:11:51.995Z,8.45
2023-01-04T10:15:13.914Z,8.64
2023-01-04T10:22:21.640Z,8.75
2023-01-04T10:25:41.736Z,8.76
2023-01-04T10:28:58.623Z,8.70
2023-01-04T10:32:13.566Z,8.76
2023-01-04T10:35:25.272Z,8.87
2023-01-04T10:38:37.628Z,8.85
2023-01-04T10:41:56.995Z,8.87
2023-01-04T10:45:20.250Z,8.88
2023-01-04T10:49:05.644Z,8.97
2023-01-04T10:52:16.199Z,9.13
2023-01-04T10:55:34.448Z,9.16
2023-01-04T10:58:49.942Z,9.23
2023-01-04T11:02:01.439Z,9.18
2023-01-04T11:05:16.795Z,9.22
2023-01-04T11:08:30.243Z,9.19
2023-01-04T11:11:46.901Z,9.18
2023-01-04T11:14:51.991Z,9.27
2023-01-04T11:17:55.476Z,9.38
2023-01-04T11:21:00.106Z,9.41
2023-01-04T11:24:30.871Z,9.44
2023-01-04T11:27:41.208Z,9.44
2023-01-04T11:31:08.406Z,9.43
2023-01-04T11:34:13.410Z,9.56
2023-01-04T11:37:27.649Z,9.66
2023-01-04T11:40:32.451Z,9.86
2023-01-04T11:43:39.673Z,9.98
2023-01-04T11:46:43.691Z,10.00
2023-01-04T11:49:49.239Z,9.98
2023-01-04T11:52:52.425Z,9.93
2023-01-04T11:56:23.284Z,10.14
2023-01-04T11:59:31.255Z,10.02
2023-01-04T12:06:02.850Z,10.10
2023-01-04T12:09:06.490Z,10.19
2023-01-04T12:12:17.219Z,10.24
2023-01-04T12:15:33.424Z,10.32
2023-01-04T12:18:39.482Z,10.27
2023-01-04T12:21:47.120Z,10.28
2023-01-04T12:24:58.396Z,10.28
2023-01-04T12:28:04.636Z,10.27
2023-01-04T12:31:22.664Z,10.22
2023-01-04T12:34:29.551Z,10.18
2023-01-04T12:37:47.596Z,10.18
2023-01-04T12:40:52.029Z,10.09
2023-01-04T12:43:55.810Z,10.18
2023-01-04T12:47:19.047Z,10.08
2023-01-04T12:50:30.897Z,10.14
2023-01-04T12:53:55.929Z,9.97
2023-01-04T12:57:17.332Z,9.77
2023-01-04T13:00:20.992Z,9.77
2023-01-04T13:03:30.234Z,9.87
2023-01-04T13:06:41.533Z,10.03
2023-01-04T13:09:51.740Z,10.03
2023-01-04T13:13:21.417Z,10.05
2023-01-04T13:16:29.546Z,10.06
2023-01-04T13:19:34.770Z,9.97
2023-01-04T13:22:51.388Z,9.91
2023-01-04T13:25:55.400Z,9.95
2023-01-04T13:29:18.857Z,9.98
2023-01-04T13:32:29.723Z,9.89
2023-01-04T13:35:34.767Z,9.87
2023-01-04T13:38:42.177Z,9.79
2023-01-04T13:41:47.553Z,9.67
2023-01-04T13:45:28.345Z,9.63
2023-01-04T13:48:39.876Z,9.56
2023-01-04T13:51:43.896Z,9.45
2023-01-04T13:54:50.672Z,9.33
2023-01-04T13:57:55.554Z,9.23
2023-01-04T14:01:14.356Z,9.11
2023-01-04T14:04:28.607Z,8.95
2023-01-04T14:07:33.642Z,8.86
2023-01-04T14:10:41.023Z,8.86
2023-01-04T14:13:51.195Z,8.64
2023-01-04T14:17:14.972Z,8.49
2023-01-04T14:20:21.759Z,8.38
2023-01-04T14:23:44.288Z,8.29
2023-01-04T14:26:49.130Z,8.18
2023-01-04T14:29:52.130Z,8.10
2023-01-04T14:33:02.685Z,7.97
2023-01-04T14:36:11.093Z,7.89
2023-01-04T14:39:28.114Z,7.80
2023-01-04T14:42:33.767Z,7.61
2023-01-04T14:45:37.884Z,7.45
2023-01-04T14:48:41.190Z,7.29
2023-01-04T14:51:59.479Z,7.17
2023-01-04T14:55:06.423Z,7.03
2023-01-04T14:58:09.072Z,6.85
2023-01-04T15:01:16.145Z,6.68
2023-01-04T15:04:20.489Z,6.56
2023-01-04T15:07:40.954Z,6.57
2023-01-04T15:10:46.892Z,6.56
2023-01-04T15:13:51.396Z,6.45
2023-01-04T15:16:54.285Z,6.39
2023-01-04T15:19:57.187Z,6.35
2023-01-04T15:23:00.777Z,6.25
2023-01-04T15:26:13.199Z,6.25
2023-01-04T15:29:20.608Z,6.17
2023-01-04T15:32:27.159Z,6.20
2023-01-04T15:35:30.468Z,6.21
2023-01-04T15:38:33.616Z,6.08
2023-01-04T15:41:56.591Z,6.11
2023-01-04T15:45:01.858Z,6.15
2023-01-04T15:48:09.772Z,5.99
2023-01-04T15:51:12.883Z,5.80
2023-01-04T15:54:18.726Z,5.80
2023-01-04T15:57:24.139Z,5.78
2023-01-04T16:00:29.333Z,5.68
2023-01-04T16:03:37.114Z,5.68
2023-01-04T16:06:41.442Z,5.66
2023-01-04T16:09:45.329Z,5.64
2023-01-04T16:12:56.547Z,5.58
2023-01-04T16:16:05.088Z,5.43
2023-01-04T16:19:11.626Z,5.29
2023-01-04T16:22:15.060Z,5.21
2023-01-04T16:25:21.728Z,5.09
2023-01-04T16:28:30.192Z,5.09
2023-01-04T16:31:38.816Z,5.00
2023-01-04T16:34:45.347Z,4.93
2023-01-04T16:37:49.343Z,4.90
2023-01-04T16:41:06.185Z,5.12
2023-01-04T16:44:10.272Z,5.22
2023-01-04T16:47:13.388Z,5.30
2023-01-04T16:50:17.583Z,5.32
2023-01-04T16:53:22.862Z,5.30
2023-01-04T16:56:29.835Z,5.26
2023-01-04T16:59:36.309Z,5.21
2023-01-04T17:02:42.158Z,5.13
2023-01-04T17:05:46.490Z,5.06
2023-01-04T17:08:53.169Z,5.01
2023-01-04T17:12:36.841Z,4.89
2023-01-04T17:15:42.329Z,4.82
2023-01-04T17:18:46.459Z,4.61
2023-01-04T17:21:49.867Z,4.46
2023-01-04T17:24:54.339Z,4.40
2023-01-04T17:28:02.411Z,4.45
2023-01-04T17:31:10.983Z,4.32
2023-01-04T17:34:22.590Z,4.54
2023-01-04T17:37:32.056Z,4.59
2023-01-04T17:40:37.511Z,4.66
2023-01-04T17:43:46.355Z,4.70
2023-01-04T17:46:55.480Z,4.69
2023-01-04T17:49:58.647Z,4.53
2023-01-04T17:53:06.368Z,4.39
2023-01-04T17:56:18.405Z,4.29
2023-01-04T17:59:25.664Z,4.22
2023-01-04T18:02:34.956Z,4.19
2023-01-04T18:05:51.560Z,4.21
2023-01-04T18:09:05.164Z,4.18
2023-01-04T18:12:08.728Z,4.30
2023-01-04T18:15:15.256Z,4.34
2023-01-04T18:18:27.030Z,4.43
2023-01-04T18:21:33.893Z,4.47
2023-01-04T18:24:39.996Z,4.52
2023-01-04T18:27:49.460Z,4.56
2023-01-04T18:30:55.804Z,4.54
2023-01-04T18:34:03.205Z,4.56
2023-01-04T18:37:10.985Z,4.63
2023-01-04T18:40:17.208Z,4.66
2023-01-04T18:43:20.347Z,4.69
2023-01-04T18:46:25.125Z,4.64
2023-01-04T18:49:30.766Z,4.69
2023-01-04T18:52:36.487Z,4.76
2023-01-04T18:55:39.766Z,4.74
2023-01-04T18:58:43.851Z,4.82
2023-01-04T19:01:47.028Z,4.76
2023-01-04T19:04:53.142Z,4.84
2023-01-04T19:07:58.018Z,4.96
2023-01-04T19:11:02.029Z,4.89
2023-01-04T19:14:05.210Z,4.87
2023-01-04T19:17:11.783Z,4.89
2023-01-04T19:20:16.718Z,4.93
2023-01-04T19:23:22.481Z,5.01
2023-01-04T19:26:28.598Z,5.00
2023-01-04T19:29:39.836Z,5.05
2023-01-04T19:32:45.384Z,5.06
2023-01-04T19:35:52.701Z,5.04
2023-01-04T19:39:00.986Z,4.95
2023-01-04T19:42:05.837Z,4.99
2023-01-04T19:45:12.363Z,4.93
2023-01-04T19:48:19.898Z,4.91
2023-01-04T19:51:26.157Z,5.02
2023-01-04T19:54:33.554Z,5.08
2023-01-04T19:57:39.141Z,5.19
2023-01-04T20:00:54.945Z,5.19
2023-01-04T20:04:00.811Z,5.20
2023-01-04T20:07:08.057Z,5.25
2023-01-04T20:10:15.972Z,5.33
2023-01-04T20:13:20.070Z,5.42
2023-01-04T20:16:22.552Z,5.53
2023-01-04T20:19:25.955Z,5.58
2023-01-04T20:22:30.702Z,5.60
2023-01-04T20:25:34.710Z,5.67
2023-01-04T20:28:41.861Z,5.66
2023-01-04T20:31:50.105Z,5.70
2023-01-04T20:34:54.219Z,5.76
2023-01-04T20:38:02.119Z,5.70
2023-01-04T20:41:08.293Z,5.72
2023-01-04T20:44:11.340Z,5.59
2023-01-04T20:47:16.920Z,5.52
2023-01-04T20:50:19.697Z,5.46
2023-01-04T20:53:24.975Z,5.60
2023-01-04T20:56:32.833Z,5.60
2023-01-04T20:59:38.907Z,5.60
2023-01-04T21:02:45.017Z,5.63
2023-01-04T21:05:53.304Z,5.60
2023-01-04T21:08:56.443Z,5.74
2023-01-04T21:12:07.315Z,5.81
2023-01-04T21:15:11.820Z,5.89
2023-01-04T21:18:17.116Z,6.00
2023-01-04T21:21:20.625Z,6.05
2023-01-04T21:24:24.120Z,6.10
2023-01-04T21:27:32.336Z,6.11
2023-01-04T21:30:36.413Z,6.10
2023-01-04T21:33:45.173Z,6.09
2023-01-04T21:36:48.973Z,6.10
2023-01-04T21:39:52.572Z,6.11
2023-01-04T21:42:58.124Z,6.17
2023-01-04T21:46:14.925Z,6.23
2023-01-04T21:49:17.637Z,6.25
2023-01-04T21:52:24.510Z,6.29
2023-01-04T21:55:34.189Z,6.32
2023-01-04T21:58:37.920Z,6.27
2023-01-04T22:01:46.684Z,6.27
2023-01-04T22:04:52.440Z,6.22
2023-01-04T22:07:55.415Z,6.21
2023-01-04T22:10:59.233Z,6.14
2023-01-04T22:14:05.595Z,6.10
2023-01-04T22:17:09.225Z,6.09
2023-01-04T22:20:14.154Z,6.01
2023-01-04T22:23:22.261Z,5.95
2023-01-04T22:26:26.773Z,5.94
2023-01-04T22:29:30.137Z,5.92
2023-01-04T22:32:37.723Z,5.90
2023-01-04T22:35:46.197Z,5.92
2023-01-04T22:38:56.877Z,5.92
2023-01-04T22:42:01.580Z,5.93
2023-01-04T22:45:12.809Z,5.97
2023-01-04T22:48:18.614Z,5.94
2023-01-04T22:51:27.760Z,5.98
2023-01-04T22:54:33.602Z,5.99
2023-01-04T22:57:43.732Z,6.00
2023-01-04T23:00:47.658Z,6.03
2023-01-04T23:03:54.318Z,6.09
2023-01-04T23:06:57.551Z,6.16
2023-01-04T23:10:00.893Z,6.17
2023-01-04T23:13:04.745Z,6.22
2023-01-04T23:16:17.590Z,6.18
2023-01-04T23:19:21.800Z,6.15
2023-01-04T23:22:26.718Z,6.19
2023-01-04T23:25:30.341Z,6.26
2023-01-04T23:28:38.120Z,6.26
2023-01-04T23:31:43.610Z,6.30
2023-01-04T23:34:50.872Z,6.37
2023-01-04T23:37:56.101Z,6.43
2023-01-04T23:41:00.419Z,6.42
2023-01-04T23:44:06.876Z,6.49
2023-01-04T23:47:13.064Z,6.56
2023-01-04T23:50:19.524Z,6.66
2023-01-04T23:53:24.674Z,6.74
2023-01-04T23:56:29.595Z,6.79
2023-01-04T23:59:34.836Z,6.81
